Terminal Aerodrome Forecast
Issued by NWS

Home | Current Version | Previous Version | Text Only | Print | Product List | Glossary On
Versions: 1 2 3 4 5 6 7 8 9 10 11 12 13 14 15 16 17 18 19 20 21 22 23 24
000
FTUS43 KAPX 231720
TAFMBL
TAF
KMBL 231720Z 2318/2418 31006KT P6SM VCSH SCT015 BKN025
      TEMPO 2320/2324 5SM -SHRA BKN015
     FM240200 VRB03KT P6SM -SHRA BKN015 OVC025
     FM240600 VRB03KT P6SM -SHRA BKN008 OVC015
     FM241400 07010KT P6SM VCSH SCT015 OVC025=

USA.gov is the U.S. government's official web portal to all federal, state and local government web resources and services.